Terminal Aerodrome Forecast
Issued by NWS

Home | Current Version | Previous Version | Text Only | Print | Product List | Glossary Off
Versions: 1 2 3 4 5 6 7 8 9 10 11 12 13 14 15 16 17 18 19 20 21 22 23 24 25 26 27

000
FTUS43 KGRB 181502 AAB
TAFCWA
TAF AMD
KCWA 181502Z 1815/1912 25006KT 1SM BR BKN002
     FM181600 24007KT 3SM BR BKN004
     FM181700 24008KT 5SM BR BKN008
     FM182300 22008KT P6SM BKN015
     FM190300 24009G17KT P6SM SCT018 OVC100=

USA.gov is the U.S. government's official web portal to all federal, state and local government web resources and services.